createdAt,value
2023-03-23T00:00:46.551Z,2.20
2023-03-23T00:01:53.277Z,2.10
2023-03-23T00:02:56.140Z,2.05
2023-03-23T00:03:59.883Z,2.03
2023-03-23T00:05:04.376Z,1.80
2023-03-23T00:06:08.225Z,1.75
2023-03-23T00:07:10.943Z,1.95
2023-03-23T00:08:13.971Z,1.83
2023-03-23T00:09:17.189Z,1.77
2023-03-23T00:10:19.706Z,1.80
2023-03-23T00:11:27.772Z,1.70
2023-03-23T00:12:35.988Z,1.60
2023-03-23T00:13:39.347Z,1.67
2023-03-23T00:14:42.772Z,1.52
2023-03-23T00:15:45.341Z,1.70
2023-03-23T00:16:48.326Z,1.50
2023-03-23T00:17:51.065Z,1.50
2023-03-23T00:18:54.698Z,1.48
2023-03-23T00:19:57.390Z,1.60
2023-03-23T00:20:59.705Z,1.25
2023-03-23T00:22:02.877Z,1.40
2023-03-23T00:23:05.284Z,1.38
2023-03-23T00:24:14.385Z,1.10
2023-03-23T00:25:18.225Z,1.10
2023-03-23T00:26:21.037Z,1.10
2023-03-23T00:27:24.276Z,1.20
2023-03-23T00:28:28.190Z,1.20
2023-03-23T00:29:30.998Z,1.13
2023-03-23T00:30:36.533Z,1.33
2023-03-23T00:31:38.975Z,1.30
2023-03-23T00:32:41.348Z,1.83
2023-03-23T00:33:45.179Z,1.10
2023-03-23T00:34:50.668Z,1.17
2023-03-23T00:35:53.856Z,1.10
2023-03-23T00:36:57.929Z,1.27
2023-03-23T00:38:00.960Z,1.00
2023-03-23T00:39:05.189Z,1.05
2023-03-23T00:40:10.977Z,1.08
2023-03-23T00:41:13.907Z,1.17
2023-03-23T00:42:17.826Z,1.10
2023-03-23T00:43:20.889Z,1.13
2023-03-23T00:44:24.656Z,1.08
2023-03-23T00:45:27.925Z,1.10
2023-03-23T00:46:31.304Z,0.90
2023-03-23T00:47:37.269Z,1.17
2023-03-23T00:48:45.867Z,1.00
2023-03-23T00:49:48.965Z,1.02
2023-03-23T00:50:52.939Z,0.90
2023-03-23T00:51:58.870Z,1.00
2023-03-23T00:53:02.208Z,0.98
2023-03-23T00:54:05.064Z,1.05
2023-03-23T00:55:08.537Z,0.90
2023-03-23T00:56:11.048Z,1.10
2023-03-23T00:57:13.765Z,0.90
2023-03-23T00:58:17.006Z,1.05
2023-03-23T00:59:20.381Z,1.10
2023-03-23T01:00:24.502Z,1.23
2023-03-23T01:01:27.039Z,1.00
2023-03-23T01:02:29.285Z,1.10
2023-03-23T01:03:31.753Z,1.05
2023-03-23T01:04:38.161Z,1.05
2023-03-23T01:05:42.091Z,1.20
2023-03-23T01:06:45.781Z,1.10
2023-03-23T01:07:49.659Z,1.05
2023-03-23T01:08:51.947Z,1.20
2023-03-23T01:09:55.400Z,1.30
2023-03-23T01:11:05.255Z,1.33
2023-03-23T01:12:09.324Z,1.30
2023-03-23T01:13:12.102Z,1.45
2023-03-23T01:14:16.059Z,1.33
2023-03-23T01:15:19.982Z,1.60
2023-03-23T01:16:23.220Z,1.40
2023-03-23T01:17:25.516Z,1.45
2023-03-23T01:18:33.771Z,1.30
2023-03-23T01:19:36.542Z,1.50
2023-03-23T01:20:38.910Z,1.80
2023-03-23T01:21:41.237Z,1.42
2023-03-23T01:22:43.988Z,1.60
2023-03-23T01:23:47.758Z,1.58
2023-03-23T01:24:50.072Z,1.73
2023-03-23T01:25:55.667Z,1.50
2023-03-23T01:27:03.069Z,1.70
2023-03-23T01:28:05.774Z,1.42
2023-03-23T01:29:08.244Z,1.85
2023-03-23T01:30:13.648Z,1.50
2023-03-23T01:31:20.678Z,1.80
2023-03-23T01:32:26.173Z,1.60
2023-03-23T01:33:29.757Z,1.50
2023-03-23T01:34:34.433Z,1.67
2023-03-23T01:35:39.046Z,1.50
2023-03-23T01:36:42.830Z,1.70
2023-03-23T01:37:48.611Z,1.73
2023-03-23T01:38:53.123Z,2.00
2023-03-23T01:39:57.504Z,1.60
2023-03-23T01:41:00.076Z,1.67
2023-03-23T01:42:02.561Z,1.70
2023-03-23T01:43:14.236Z,1.40
2023-03-23T01:44:17.985Z,1.73
2023-03-23T01:45:38.717Z,1.58
2023-03-23T01:46:41.347Z,1.50
2023-03-23T01:47:44.805Z,1.50
2023-03-23T01:48:48.182Z,1.60
2023-03-23T01:49:51.912Z,1.55
2023-03-23T01:51:03.758Z,1.63
2023-03-23T01:52:18.450Z,1.60
2023-03-23T01:53:26.331Z,1.67
2023-03-23T01:54:31.154Z,1.60
2023-03-23T01:55:49.970Z,1.48
2023-03-23T01:57:01.278Z,1.48
2023-03-23T01:58:04.050Z,1.52
2023-03-23T01:59:06.425Z,1.50
2023-03-23T02:00:15.559Z,1.50
2023-03-23T02:01:29.711Z,1.60
2023-03-23T02:02:33.899Z,1.50
2023-03-23T02:03:42.721Z,1.60
2023-03-23T02:04:45.593Z,1.70
2023-03-23T02:05:47.883Z,1.60
2023-03-23T02:07:05.366Z,1.58
2023-03-23T02:08:09.908Z,1.75
2023-03-23T02:09:19.048Z,1.80
2023-03-23T02:10:28.252Z,1.60
2023-03-23T02:11:31.502Z,1.50
2023-03-23T02:12:35.063Z,1.67
2023-03-23T02:13:38.451Z,1.70
2023-03-23T02:14:40.975Z,1.60
2023-03-23T02:15:52.543Z,1.38
2023-03-23T02:17:04.428Z,1.50
2023-03-23T02:18:22.153Z,1.50
2023-03-23T02:19:43.692Z,1.50
2023-03-23T02:21:01.260Z,1.80
2023-03-23T02:22:41.359Z,1.60
2023-03-23T02:24:14.754Z,1.60
2023-03-23T02:25:24.381Z,1.48
2023-03-23T02:26:39.043Z,1.40
2023-03-23T02:28:04.264Z,1.50
2023-03-23T02:29:27.159Z,1.50
2023-03-23T02:31:22.475Z,1.50
2023-03-23T02:33:00.105Z,1.45
2023-03-23T02:34:10.989Z,1.55
2023-03-23T02:35:39.887Z,1.60
2023-03-23T02:36:51.918Z,1.70
2023-03-23T02:38:01.904Z,1.52
2023-03-23T02:39:14.055Z,1.40
2023-03-23T02:40:22.420Z,1.70
2023-03-23T02:41:31.344Z,1.50
2023-03-23T02:42:35.663Z,1.40
2023-03-23T02:43:45.854Z,1.60
2023-03-23T02:44:49.728Z,1.55
2023-03-23T02:45:54.647Z,1.40
2023-03-23T02:47:00.492Z,1.65
2023-03-23T02:48:05.480Z,1.63
2023-03-23T02:49:15.666Z,1.45
2023-03-23T02:50:21.234Z,1.40
2023-03-23T02:51:26.707Z,1.40
2023-03-23T02:52:31.456Z,1.45
2023-03-23T02:53:37.883Z,1.60
2023-03-23T02:54:43.754Z,1.50
2023-03-23T02:55:47.340Z,1.30
2023-03-23T02:56:55.229Z,1.42
2023-03-23T02:58:03.430Z,1.50
2023-03-23T02:59:05.756Z,1.60
2023-03-23T03:00:13.335Z,1.52
2023-03-23T03:01:37.917Z,1.30
2023-03-23T03:02:48.647Z,1.42
2023-03-23T03:03:52.586Z,1.55
2023-03-23T03:05:13.977Z,1.33
2023-03-23T03:06:38.151Z,1.40
2023-03-23T03:08:20.291Z,1.30
2023-03-23T03:09:45.343Z,1.50
2023-03-23T03:10:55.895Z,1.25
2023-03-23T03:12:11.365Z,1.42
2023-03-23T03:13:33.070Z,1.33
2023-03-23T03:14:50.525Z,1.52
2023-03-23T03:16:33.379Z,1.23
2023-03-23T03:17:44.616Z,1.25
2023-03-23T03:18:52.390Z,1.17
2023-03-23T03:20:11.039Z,1.40
2023-03-23T03:21:18.257Z,1.60
2023-03-23T03:22:23.844Z,1.40
2023-03-23T03:23:28.379Z,1.25
2023-03-23T03:24:37.174Z,1.48
2023-03-23T03:25:48.357Z,1.40
2023-03-23T03:27:00.488Z,1.27
2023-03-23T03:28:11.475Z,1.30
2023-03-23T03:29:31.630Z,1.20
2023-03-23T03:30:37.783Z,1.40
2023-03-23T03:31:46.676Z,1.30
2023-03-23T03:32:54.793Z,1.27
2023-03-23T03:34:00.142Z,1.08
2023-03-23T03:35:04.000Z,1.20
2023-03-23T03:36:12.357Z,1.48
2023-03-23T03:37:16.749Z,1.17
2023-03-23T03:38:19.479Z,1.25
2023-03-23T03:39:22.743Z,1.48
2023-03-23T03:40:25.286Z,1.30
2023-03-23T03:41:29.073Z,1.20
2023-03-23T03:42:33.197Z,1.10
2023-03-23T03:43:36.534Z,1.35
2023-03-23T03:44:40.145Z,1.35
2023-03-23T03:45:44.116Z,1.33
2023-03-23T03:46:47.420Z,1.30
2023-03-23T03:47:51.065Z,1.35
2023-03-23T03:48:54.381Z,1.08
2023-03-23T03:49:57.368Z,1.20
2023-03-23T03:51:01.675Z,1.25
2023-03-23T03:52:08.127Z,1.60
2023-03-23T03:53:15.688Z,1.10
2023-03-23T03:54:18.654Z,1.20
2023-03-23T03:55:24.282Z,1.20
2023-03-23T03:56:27.363Z,1.40
2023-03-23T03:57:42.848Z,1.30
2023-03-23T03:58:47.680Z,1.27
2023-03-23T04:00:35.115Z,1.35
2023-03-23T04:01:39.415Z,1.20
2023-03-23T04:02:53.033Z,1.20
2023-03-23T04:04:01.608Z,1.20
2023-03-23T04:05:11.366Z,1.20
2023-03-23T04:06:14.058Z,1.10
2023-03-23T04:07:20.086Z,1.40
2023-03-23T04:08:26.043Z,1.38
2023-03-23T04:09:29.617Z,1.20
2023-03-23T04:10:33.162Z,1.10
2023-03-23T04:11:36.586Z,1.23
2023-03-23T04:12:59.008Z,1.58
2023-03-23T04:14:26.030Z,1.30
2023-03-23T04:15:31.144Z,1.40
2023-03-23T04:16:35.742Z,1.30
2023-03-23T04:17:41.959Z,1.27
2023-03-23T04:18:44.893Z,1.15
2023-03-23T04:20:07.740Z,1.20
2023-03-23T04:21:10.130Z,1.10
2023-03-23T04:22:13.009Z,1.30
2023-03-23T04:23:21.684Z,1.30
2023-03-23T04:24:56.051Z,1.50
2023-03-23T04:25:58.341Z,1.20
2023-03-23T04:27:06.664Z,1.23
2023-03-23T04:28:12.361Z,1.30
2023-03-23T04:29:23.491Z,1.35
2023-03-23T04:30:44.720Z,1.20
2023-03-23T04:31:48.110Z,1.15
2023-03-23T04:33:06.482Z,1.30
2023-03-23T04:34:09.112Z,1.20
2023-03-23T04:35:20.272Z,1.10
2023-03-23T04:36:57.091Z,1.33
2023-03-23T04:38:03.832Z,1.40
2023-03-23T04:39:10.777Z,1.23
2023-03-23T04:40:16.630Z,1.20
2023-03-23T04:41:25.839Z,1.20
2023-03-23T04:42:39.225Z,1.35
2023-03-23T04:44:06.644Z,1.23
2023-03-23T04:45:22.786Z,1.30
2023-03-23T04:46:31.096Z,1.48
2023-03-23T04:47:41.822Z,1.40
2023-03-23T04:48:55.980Z,1.40
2023-03-23T04:50:06.172Z,1.27
2023-03-23T04:51:15.916Z,1.20
2023-03-23T04:52:22.573Z,1.23
2023-03-23T04:53:31.602Z,1.50
2023-03-23T04:54:34.559Z,1.50
2023-03-23T04:55:38.416Z,1.55
2023-03-23T04:56:43.386Z,1.30
2023-03-23T04:57:49.826Z,1.20
2023-03-23T04:59:29.004Z,1.45
2023-03-23T05:00:41.125Z,1.33
2023-03-23T05:01:46.798Z,1.30
2023-03-23T05:03:10.919Z,1.23
2023-03-23T05:04:17.706Z,1.40
2023-03-23T05:05:43.992Z,1.48
2023-03-23T05:06:47.093Z,1.50
2023-03-23T05:07:58.324Z,1.25
2023-03-23T05:09:04.660Z,1.60
2023-03-23T05:10:09.026Z,1.48
2023-03-23T05:11:11.321Z,1.83
2023-03-23T05:12:17.464Z,1.73
2023-03-23T05:13:34.018Z,1.60
2023-03-23T05:14:37.787Z,1.60
2023-03-23T05:15:47.324Z,1.60
2023-03-23T05:16:50.838Z,1.80
2023-03-23T05:17:55.381Z,1.70
2023-03-23T05:19:00.636Z,1.60
2023-03-23T05:20:12.094Z,1.50
2023-03-23T05:21:17.929Z,1.70
2023-03-23T05:22:28.252Z,1.60
2023-03-23T05:23:32.105Z,1.60
2023-03-23T05:24:43.782Z,1.90
2023-03-23T05:25:54.255Z,1.50
2023-03-23T05:26:56.670Z,1.88
2023-03-23T05:28:05.604Z,1.45
2023-03-23T05:29:25.250Z,1.80
2023-03-23T05:30:33.480Z,1.58
2023-03-23T05:31:36.001Z,1.50
2023-03-23T05:32:38.770Z,1.60
2023-03-23T05:34:10.772Z,1.40
2023-03-23T05:35:21.685Z,1.55
2023-03-23T05:36:25.905Z,1.83
2023-03-23T05:37:47.230Z,1.85
2023-03-23T05:38:52.979Z,1.77
2023-03-23T05:39:56.606Z,1.70
2023-03-23T05:41:26.895Z,1.70
2023-03-23T05:42:29.296Z,1.50
2023-03-23T05:43:40.086Z,1.60
2023-03-23T05:44:55.234Z,1.70
2023-03-23T05:46:00.806Z,1.63
2023-03-23T05:47:04.603Z,1.67
2023-03-23T05:48:07.082Z,1.63
2023-03-23T05:49:10.050Z,1.50
2023-03-23T05:50:15.389Z,1.60
2023-03-23T05:51:20.003Z,1.50
2023-03-23T05:52:22.686Z,1.60
2023-03-23T05:53:25.305Z,1.70
2023-03-23T05:54:31.716Z,1.55
2023-03-23T05:55:33.985Z,1.60
2023-03-23T05:56:45.215Z,1.58
2023-03-23T05:57:59.567Z,1.80
2023-03-23T05:59:10.090Z,1.90
2023-03-23T06:00:23.649Z,1.63
2023-03-23T06:01:34.495Z,1.80
2023-03-23T06:02:37.079Z,1.70
2023-03-23T06:03:39.524Z,1.70
2023-03-23T06:05:00.796Z,1.60
2023-03-23T06:06:07.610Z,1.90
2023-03-23T06:07:24.572Z,1.90
2023-03-23T06:08:36.438Z,2.13
2023-03-23T06:09:42.945Z,1.80
2023-03-23T06:11:06.326Z,2.00
2023-03-23T06:12:13.701Z,2.00
2023-03-23T06:13:41.941Z,1.90
2023-03-23T06:14:48.943Z,1.92
2023-03-23T06:15:59.977Z,1.30
2023-03-23T06:17:18.583Z,1.50
2023-03-23T06:18:23.137Z,1.17
2023-03-23T06:20:11.027Z,1.20
2023-03-23T06:21:18.539Z,1.20
2023-03-23T06:22:30.324Z,1.10
2023-03-23T06:23:34.743Z,1.00
2023-03-23T06:24:39.997Z,1.23
2023-03-23T06:25:48.072Z,1.42
2023-03-23T06:26:54.536Z,1.20
2023-03-23T06:28:01.505Z,1.17
2023-03-23T06:29:12.069Z,1.20
2023-03-23T06:30:20.576Z,1.10
2023-03-23T06:31:23.612Z,1.45
2023-03-23T06:32:30.175Z,1.40
2023-03-23T06:33:32.838Z,1.23
2023-03-23T06:34:54.226Z,1.42
2023-03-23T06:36:16.984Z,1.25
2023-03-23T06:37:46.680Z,1.33
2023-03-23T06:38:55.661Z,1.30
2023-03-23T06:40:10.884Z,1.33
2023-03-23T06:41:15.258Z,1.30
2023-03-23T06:42:17.946Z,1.40
2023-03-23T06:43:25.580Z,1.08
2023-03-23T06:44:27.977Z,1.40
2023-03-23T06:45:34.438Z,1.17
2023-03-23T06:47:06.820Z,1.35
2023-03-23T06:48:12.330Z,1.40
2023-03-23T06:49:14.731Z,1.13
2023-03-23T06:50:24.878Z,1.27
2023-03-23T06:51:28.776Z,1.17
2023-03-23T06:52:32.121Z,1.30
2023-03-23T06:53:36.487Z,1.40
2023-03-23T06:54:41.413Z,1.20
2023-03-23T06:55:47.230Z,1.42
2023-03-23T06:56:51.784Z,1.25
2023-03-23T06:57:55.561Z,1.27
2023-03-23T06:58:59.610Z,1.20
2023-03-23T07:00:06.536Z,1.30
2023-03-23T07:01:14.553Z,1.50
2023-03-23T07:02:22.820Z,1.20
2023-03-23T07:03:28.976Z,1.20
2023-03-23T07:04:33.541Z,1.25
2023-03-23T07:05:47.929Z,1.40
2023-03-23T07:06:53.061Z,1.60
2023-03-23T07:07:55.343Z,1.52
2023-03-23T07:09:05.979Z,1.58
2023-03-23T07:10:11.942Z,1.60
2023-03-23T07:11:14.989Z,1.48
2023-03-23T07:12:17.655Z,1.30
2023-03-23T07:13:23.235Z,1.20
2023-03-23T07:14:31.957Z,1.38
2023-03-23T07:15:34.721Z,1.27
2023-03-23T07:16:37.732Z,1.30
2023-03-23T07:17:41.032Z,1.25
2023-03-23T07:18:55.484Z,1.10
2023-03-23T07:19:57.991Z,1.30
2023-03-23T07:21:02.307Z,1.30
2023-03-23T07:22:08.597Z,1.45
2023-03-23T07:23:11.105Z,1.00
2023-03-23T07:24:30.326Z,1.20
2023-03-23T07:25:47.021Z,1.25
2023-03-23T07:26:54.723Z,1.10
2023-03-23T07:27:57.357Z,1.20
2023-03-23T07:28:59.742Z,1.25
2023-03-23T07:30:09.083Z,1.40
2023-03-23T07:31:12.596Z,1.00
2023-03-23T07:32:15.201Z,1.02
2023-03-23T07:33:18.952Z,1.23
2023-03-23T07:34:23.515Z,1.50
2023-03-23T07:35:40.328Z,1.23
2023-03-23T07:36:46.728Z,1.20
2023-03-23T07:37:53.301Z,1.27
2023-03-23T07:39:02.802Z,1.30
2023-03-23T07:40:15.800Z,1.40
2023-03-23T07:41:22.249Z,1.20
2023-03-23T07:42:28.929Z,1.30
2023-03-23T07:43:35.687Z,1.40
2023-03-23T07:44:48.471Z,1.27
2023-03-23T07:45:51.121Z,1.35
2023-03-23T07:46:54.487Z,1.33
2023-03-23T07:48:07.348Z,1.50
2023-03-23T07:49:15.204Z,1.30
2023-03-23T07:50:28.472Z,1.20
2023-03-23T07:51:33.934Z,1.50
2023-03-23T07:52:37.396Z,1.40
2023-03-23T07:53:41.528Z,1.20
2023-03-23T07:54:59.053Z,1.30
2023-03-23T07:56:32.036Z,1.42
2023-03-23T07:57:48.751Z,1.30
2023-03-23T07:58:52.646Z,1.60
2023-03-23T07:59:55.249Z,1.58
2023-03-23T08:00:58.826Z,1.50
2023-03-23T08:02:05.053Z,1.73
2023-03-23T08:03:09.794Z,2.08
2023-03-23T08:04:22.045Z,1.50
2023-03-23T08:05:51.438Z,1.55
2023-03-23T08:07:08.338Z,1.50
2023-03-23T08:08:20.219Z,1.35
2023-03-23T08:09:45.261Z,1.40
2023-03-23T08:11:00.698Z,1.15
2023-03-23T08:12:39.551Z,1.70
2023-03-23T08:14:21.446Z,1.33
2023-03-23T08:16:04.810Z,1.30
2023-03-23T08:17:25.432Z,1.10
2023-03-23T08:18:51.412Z,1.30
2023-03-23T08:20:13.495Z,1.27
2023-03-23T08:21:34.997Z,1.50
2023-03-23T08:22:54.931Z,1.30
2023-03-23T08:24:27.386Z,1.30
2023-03-23T08:25:40.026Z,1.40
2023-03-23T08:27:01.433Z,1.50
2023-03-23T08:28:10.400Z,1.30
2023-03-23T08:29:51.154Z,1.40
2023-03-23T08:31:18.205Z,1.38
2023-03-23T08:32:41.315Z,1.40
2023-03-23T08:33:52.506Z,1.50
2023-03-23T08:35:07.464Z,1.13
2023-03-23T08:36:21.744Z,1.35
2023-03-23T08:37:36.778Z,1.40
2023-03-23T08:38:57.669Z,1.35
2023-03-23T08:40:18.120Z,1.40
2023-03-23T08:41:46.411Z,1.30
2023-03-23T08:43:01.296Z,1.42
2023-03-23T08:44:35.631Z,1.30
2023-03-23T08:45:55.572Z,1.40
2023-03-23T08:47:11.826Z,1.30
2023-03-23T08:48:37.841Z,1.20
2023-03-23T08:49:58.643Z,1.20
2023-03-23T08:51:24.968Z,1.30
2023-03-23T08:52:43.130Z,1.30
2023-03-23T08:54:05.040Z,1.20
2023-03-23T08:55:41.512Z,1.23
2023-03-23T08:57:03.872Z,1.30
2023-03-23T08:58:24.558Z,1.33
2023-03-23T08:59:55.354Z,1.75
2023-03-23T09:01:08.762Z,1.10
2023-03-23T09:02:32.288Z,1.38
2023-03-23T09:03:49.722Z,1.52
2023-03-23T09:05:17.056Z,1.30
2023-03-23T09:06:37.932Z,1.40
2023-03-23T09:07:44.458Z,1.30
2023-03-23T09:08:48.363Z,1.50
2023-03-23T09:09:51.161Z,1.23
2023-03-23T09:10:53.455Z,1.33
2023-03-23T09:11:55.831Z,1.40
2023-03-23T09:12:58.957Z,1.38
2023-03-23T09:14:02.635Z,1.60
2023-03-23T09:15:06.618Z,1.35
2023-03-23T09:16:09.442Z,1.42
2023-03-23T09:17:12.340Z,1.40
2023-03-23T09:18:14.974Z,1.60
2023-03-23T09:19:17.222Z,1.48
2023-03-23T09:20:23.198Z,1.55
2023-03-23T09:21:27.512Z,1.40
2023-03-23T09:22:30.275Z,1.30
2023-03-23T09:23:33.000Z,1.60
2023-03-23T09:24:35.822Z,1.40
2023-03-23T09:25:38.545Z,1.40
2023-03-23T09:26:41.197Z,1.60
2023-03-23T09:27:44.061Z,1.60
2023-03-23T09:28:47.449Z,1.48
2023-03-23T09:29:50.112Z,1.60
2023-03-23T09:30:53.542Z,1.50
2023-03-23T09:31:57.208Z,1.70
2023-03-23T09:33:02.492Z,1.60
2023-03-23T09:34:05.343Z,1.60
2023-03-23T09:35:14.703Z,1.73
2023-03-23T09:36:19.171Z,1.42
2023-03-23T09:37:21.723Z,1.70
2023-03-23T09:38:24.038Z,1.60
2023-03-23T09:39:26.576Z,1.60
2023-03-23T09:40:49.695Z,1.70
2023-03-23T09:42:02.456Z,1.80
2023-03-23T09:43:07.502Z,1.60
2023-03-23T09:44:18.885Z,1.60
2023-03-23T09:45:49.330Z,1.80
2023-03-23T09:47:17.146Z,1.80
2023-03-23T09:48:40.467Z,1.77
2023-03-23T09:49:49.734Z,1.95
2023-03-23T09:50:58.397Z,1.88
2023-03-23T09:52:14.944Z,1.80
2023-03-23T09:53:22.228Z,1.80
2023-03-23T09:54:31.628Z,1.88
2023-03-23T09:55:36.083Z,1.85
2023-03-23T09:56:38.946Z,1.75
2023-03-23T09:57:57.489Z,1.75
2023-03-23T09:59:20.131Z,1.70
2023-03-23T10:00:31.254Z,1.90
2023-03-23T10:01:38.737Z,1.50
2023-03-23T10:02:50.040Z,1.77
2023-03-23T10:04:01.393Z,1.52
2023-03-23T10:05:33.722Z,1.60
2023-03-23T10:06:37.424Z,1.80
2023-03-23T10:07:40.194Z,1.80
2023-03-23T10:08:56.863Z,1.70
2023-03-23T10:10:04.048Z,1.58
2023-03-23T10:11:25.544Z,1.60
2023-03-23T10:12:37.239Z,1.60
2023-03-23T10:13:48.726Z,1.58
2023-03-23T10:14:59.938Z,1.50
2023-03-23T10:16:05.042Z,1.60
2023-03-23T10:17:28.328Z,2.00
2023-03-23T10:18:38.666Z,1.80
2023-03-23T10:19:47.782Z,1.77
2023-03-23T10:20:56.935Z,1.67
2023-03-23T10:22:07.584Z,1.50
2023-03-23T10:23:16.959Z,1.58
2023-03-23T10:24:25.830Z,1.70
2023-03-23T10:25:35.954Z,1.70
2023-03-23T10:27:07.791Z,1.60
2023-03-23T10:28:22.639Z,1.50
2023-03-23T10:29:31.295Z,1.70
2023-03-23T10:30:44.433Z,1.38
2023-03-23T10:31:59.809Z,1.70
2023-03-23T10:33:27.713Z,1.80
2023-03-23T10:34:41.725Z,1.60
2023-03-23T10:35:57.186Z,1.40
2023-03-23T10:37:09.720Z,1.38
2023-03-23T10:38:18.863Z,1.50
2023-03-23T10:39:25.094Z,1.40
2023-03-23T10:40:30.922Z,1.30
2023-03-23T10:41:33.298Z,1.48
2023-03-23T10:42:39.488Z,1.60
2023-03-23T10:43:42.692Z,1.70
2023-03-23T10:44:45.016Z,1.70
2023-03-23T10:46:00.750Z,1.70
2023-03-23T10:47:07.224Z,1.52
2023-03-23T10:48:18.721Z,1.48
2023-03-23T10:49:25.877Z,1.60
2023-03-23T10:50:33.513Z,1.70
2023-03-23T10:51:41.191Z,1.30
2023-03-23T10:52:45.606Z,1.13
2023-03-23T10:53:57.187Z,1.40
2023-03-23T10:55:05.092Z,1.48
2023-03-23T10:56:23.902Z,1.60
2023-03-23T10:57:30.251Z,1.27
2023-03-23T10:58:36.620Z,1.27
2023-03-23T10:59:41.756Z,1.35
2023-03-23T11:00:48.027Z,1.70
2023-03-23T11:01:54.411Z,1.50
2023-03-23T11:03:22.431Z,1.58
2023-03-23T11:04:25.305Z,1.45
2023-03-23T11:05:35.228Z,1.50
2023-03-23T11:06:41.168Z,1.70
2023-03-23T11:07:52.427Z,1.60
2023-03-23T11:09:04.552Z,1.83
2023-03-23T11:10:18.688Z,1.80
2023-03-23T11:11:39.861Z,1.67
2023-03-23T11:12:46.440Z,1.48
2023-03-23T11:13:53.042Z,1.48
2023-03-23T11:15:25.818Z,1.45
2023-03-23T11:16:36.096Z,1.50
2023-03-23T11:17:38.425Z,1.50
2023-03-23T11:18:46.635Z,1.40
2023-03-23T11:19:49.722Z,1.35
2023-03-23T11:20:59.079Z,1.50
2023-03-23T11:22:24.596Z,1.67
2023-03-23T11:23:31.265Z,1.70
2023-03-23T11:24:47.468Z,1.30
2023-03-23T11:25:57.942Z,1.33
2023-03-23T11:27:00.966Z,1.48
2023-03-23T11:28:03.773Z,1.55
2023-03-23T11:29:15.637Z,1.90
2023-03-23T11:30:24.182Z,1.60
2023-03-23T11:31:34.050Z,1.60
2023-03-23T11:32:39.258Z,1.60
2023-03-23T11:34:06.324Z,1.45
2023-03-23T11:35:21.262Z,1.50
2023-03-23T11:36:31.912Z,1.70
2023-03-23T11:37:37.018Z,1.65
2023-03-23T11:38:39.506Z,1.88
2023-03-23T11:39:50.953Z,1.48
2023-03-23T11:40:54.191Z,1.50
2023-03-23T11:42:08.996Z,1.60
2023-03-23T11:43:20.219Z,1.42
2023-03-23T11:44:25.101Z,1.60
2023-03-23T11:45:36.936Z,1.60
2023-03-23T11:46:55.332Z,1.60
2023-03-23T11:48:29.434Z,1.20
2023-03-23T11:49:43.757Z,1.60
2023-03-23T11:50:58.215Z,1.38
2023-03-23T11:52:11.358Z,1.25
2023-03-23T11:53:32.483Z,1.52
2023-03-23T11:54:41.925Z,1.35
2023-03-23T11:55:47.308Z,1.30
2023-03-23T11:56:52.471Z,1.42
2023-03-23T11:57:59.360Z,1.60
2023-03-23T11:59:04.055Z,1.60
2023-03-23T12:00:19.624Z,1.50
2023-03-23T12:02:01.333Z,1.63
2023-03-23T12:03:41.662Z,1.58
2023-03-23T12:05:08.617Z,1.45
2023-03-23T12:06:13.713Z,1.50
2023-03-23T12:07:34.032Z,1.40
2023-03-23T12:09:15.009Z,1.63
2023-03-23T12:10:40.582Z,1.23
2023-03-23T12:11:55.353Z,1.30
2023-03-23T12:13:23.300Z,1.20
2023-03-23T12:14:59.994Z,1.30
2023-03-23T12:16:15.568Z,1.20
2023-03-23T12:17:32.778Z,1.23
2023-03-23T12:18:49.783Z,1.20
2023-03-23T12:20:11.744Z,1.20
2023-03-23T12:21:22.498Z,1.38
2023-03-23T12:22:50.176Z,1.30
2023-03-23T12:24:01.271Z,1.10
2023-03-23T12:25:20.093Z,1.20
2023-03-23T12:26:46.667Z,1.27
2023-03-23T12:28:13.830Z,1.10
2023-03-23T12:29:32.188Z,1.10
2023-03-23T12:30:50.278Z,1.10
2023-03-23T12:32:24.954Z,1.13
2023-03-23T12:33:46.902Z,1.13
2023-03-23T12:35:03.008Z,1.10
2023-03-23T12:36:18.826Z,1.10
2023-03-23T12:37:37.261Z,1.10
2023-03-23T12:39:21.981Z,1.40
2023-03-23T12:40:52.466Z,1.10
2023-03-23T12:42:02.004Z,1.17
2023-03-23T12:43:19.521Z,1.27
2023-03-23T12:44:32.655Z,1.20
2023-03-23T12:45:57.912Z,1.20
2023-03-23T12:47:21.840Z,1.30
2023-03-23T12:48:29.844Z,1.30
2023-03-23T12:49:38.849Z,1.38
2023-03-23T12:51:09.435Z,1.13
2023-03-23T12:52:30.177Z,1.33
2023-03-23T12:53:38.037Z,1.50
2023-03-23T12:55:06.264Z,1.30
2023-03-23T12:56:27.270Z,1.30
2023-03-23T12:57:56.544Z,1.30
2023-03-23T12:59:13.666Z,1.30
2023-03-23T13:00:24.681Z,1.40
2023-03-23T13:02:41.863Z,1.25
2023-03-23T13:04:11.076Z,1.50
2023-03-23T13:05:41.255Z,1.33
2023-03-23T13:06:47.397Z,1.70
2023-03-23T13:08:02.177Z,1.25
2023-03-23T13:09:04.968Z,1.45
2023-03-23T13:10:39.715Z,1.10
2023-03-23T13:11:45.199Z,1.20
2023-03-23T13:12:50.118Z,1.50
2023-03-23T13:14:00.691Z,1.40
2023-03-23T13:15:09.088Z,1.10
2023-03-23T13:16:27.722Z,1.50
2023-03-23T13:17:35.804Z,1.50
2023-03-23T13:19:02.765Z,1.60
2023-03-23T13:20:34.633Z,1.58
2023-03-23T13:21:52.924Z,1.55
2023-03-23T13:23:17.180Z,1.48
2023-03-23T13:24:23.075Z,1.40
2023-03-23T13:25:54.281Z,1.58
2023-03-23T13:26:59.293Z,1.40
2023-03-23T13:28:05.091Z,1.40
2023-03-23T13:29:15.588Z,1.40
2023-03-23T13:30:23.021Z,1.30
2023-03-23T13:31:32.793Z,1.30
2023-03-23T13:32:46.581Z,1.50
2023-03-23T13:33:54.470Z,1.58
2023-03-23T13:34:57.647Z,1.20
2023-03-23T13:36:13.374Z,1.33
2023-03-23T13:37:19.394Z,1.30
2023-03-23T13:38:27.461Z,1.50
2023-03-23T13:39:32.508Z,1.50
2023-03-23T13:40:35.444Z,1.20
2023-03-23T13:41:49.313Z,1.30
2023-03-23T13:43:00.271Z,1.13
2023-03-23T13:44:18.397Z,1.40
2023-03-23T13:45:34.309Z,1.20
2023-03-23T13:46:36.981Z,1.10
2023-03-23T13:47:42.733Z,1.30
2023-03-23T13:48:52.704Z,1.30
2023-03-23T13:49:56.214Z,1.48
2023-03-23T13:51:01.321Z,1.30
2023-03-23T13:52:17.993Z,1.50
2023-03-23T13:53:49.766Z,1.40
2023-03-23T13:54:53.791Z,1.17
2023-03-23T13:56:17.318Z,1.38
2023-03-23T13:57:41.757Z,1.40
2023-03-23T13:58:55.226Z,1.20
2023-03-23T14:00:00.301Z,1.38
2023-03-23T14:01:18.570Z,1.15
2023-03-23T14:02:38.256Z,1.20
2023-03-23T14:03:42.747Z,1.13
2023-03-23T14:04:50.381Z,1.17
2023-03-23T14:06:04.535Z,1.30
2023-03-23T14:07:13.520Z,1.30
2023-03-23T14:08:18.335Z,1.20
2023-03-23T14:09:42.715Z,1.10
2023-03-23T14:10:58.975Z,1.13
2023-03-23T14:12:09.994Z,1.10
2023-03-23T14:13:19.861Z,1.45
2023-03-23T14:14:31.989Z,1.33
2023-03-23T14:15:45.139Z,1.30
2023-03-23T14:16:55.565Z,1.38
2023-03-23T14:18:02.201Z,1.20
2023-03-23T14:19:15.774Z,1.35
2023-03-23T14:20:26.476Z,1.30
2023-03-23T14:21:40.941Z,1.17
2023-03-23T14:22:43.251Z,1.27
2023-03-23T14:23:45.666Z,1.40
2023-03-23T14:24:48.052Z,1.35
2023-03-23T14:26:06.326Z,1.30
2023-03-23T14:27:15.713Z,1.20
2023-03-23T14:28:24.077Z,1.33
2023-03-23T14:29:26.472Z,1.17
2023-03-23T14:30:37.163Z,1.20
2023-03-23T14:31:41.227Z,1.30
2023-03-23T14:32:45.245Z,1.20
2023-03-23T14:33:49.433Z,1.20
2023-03-23T14:34:52.167Z,1.30
2023-03-23T14:35:57.959Z,1.40
2023-03-23T14:37:01.266Z,1.27
2023-03-23T14:38:04.858Z,1.10
2023-03-23T14:39:13.204Z,1.20
2023-03-23T14:40:18.190Z,1.30
2023-03-23T14:41:20.522Z,1.35
2023-03-23T14:42:31.433Z,1.50
2023-03-23T14:43:36.524Z,1.30
2023-03-23T14:44:43.324Z,1.30
2023-03-23T14:45:47.754Z,1.30
2023-03-23T14:46:51.035Z,1.20
2023-03-23T14:47:58.418Z,1.17
2023-03-23T14:49:03.595Z,1.30
2023-03-23T14:50:24.268Z,1.30
2023-03-23T14:51:26.800Z,1.20
2023-03-23T14:52:31.730Z,1.33
2023-03-23T14:53:39.550Z,1.20
2023-03-23T14:54:44.159Z,1.20
2023-03-23T14:55:49.173Z,1.17
2023-03-23T14:56:52.067Z,1.17
2023-03-23T14:57:54.811Z,1.02
2023-03-23T14:59:06.015Z,1.20
2023-03-23T15:00:18.222Z,1.10
2023-03-23T15:01:28.623Z,1.20
2023-03-23T15:02:38.577Z,1.38
2023-03-23T15:03:53.830Z,1.17
2023-03-23T15:05:10.527Z,1.10
2023-03-23T15:06:19.098Z,1.30
2023-03-23T15:07:26.033Z,1.20
2023-03-23T15:08:32.173Z,1.27
2023-03-23T15:09:35.230Z,1.40
2023-03-23T15:10:39.032Z,1.10
2023-03-23T15:11:42.319Z,1.10
2023-03-23T15:12:46.611Z,1.20
2023-03-23T15:13:55.714Z,1.10
2023-03-23T15:15:01.078Z,1.10
2023-03-23T15:16:13.393Z,1.20
2023-03-23T15:17:28.494Z,1.13
2023-03-23T15:18:35.291Z,1.10
2023-03-23T15:19:42.613Z,1.20
2023-03-23T15:20:51.026Z,1.20
2023-03-23T15:22:04.884Z,1.20
2023-03-23T15:23:08.967Z,1.20
2023-03-23T15:24:39.871Z,1.20
2023-03-23T15:25:51.244Z,1.40
2023-03-23T15:26:54.732Z,1.17
2023-03-23T15:27:59.323Z,1.02
2023-03-23T15:29:08.911Z,1.27
2023-03-23T15:30:28.428Z,1.27
2023-03-23T15:31:30.893Z,1.38
2023-03-23T15:32:40.817Z,1.23
2023-03-23T15:34:04.909Z,1.25
2023-03-23T15:35:19.231Z,1.20
2023-03-23T15:36:22.062Z,1.40
2023-03-23T15:37:27.451Z,1.38
2023-03-23T15:38:35.795Z,1.10
2023-03-23T15:39:42.363Z,1.15
2023-03-23T15:40:46.938Z,1.20
2023-03-23T15:41:51.441Z,1.10